sensor_id;sensor_type;location;lat;lon;timestamp;P1;durP1;ratioP1;P2;durP2;ratioP2
40449;SDS011;41787;53.570;10.032;2022-12-07T00:01:42;27.17;;;16.25;;
40449;SDS011;41787;53.570;10.032;2022-12-07T00:04:12;24.15;;;14.40;;
40449;SDS011;41787;53.570;10.032;2022-12-07T00:06:39;22.13;;;14.93;;
40449;SDS011;41787;53.570;10.032;2022-12-07T00:09:06;18.98;;;13.48;;
40449;SDS011;41787;53.570;10.032;2022-12-07T00:11:33;22.42;;;14.18;;
40449;SDS011;41787;53.570;10.032;2022-12-07T00:14:00;24.42;;;15.13;;
40449;SDS011;41787;53.570;10.032;2022-12-07T00:16:27;22.42;;;14.57;;
40449;SDS011;41787;53.570;10.032;2022-12-07T00:18:53;24.23;;;16.05;;
40449;SDS011;41787;53.570;10.032;2022-12-07T00:21:21;24.33;;;15.45;;
40449;SDS011;41787;53.570;10.032;2022-12-07T00:23:48;23.52;;;15.02;;
40449;SDS011;41787;53.570;10.032;2022-12-07T00:26:17;23.05;;;15.30;;
40449;SDS011;41787;53.570;10.032;2022-12-07T00:28:47;22.08;;;15.27;;
40449;SDS011;41787;53.570;10.032;2022-12-07T00:31:13;23.90;;;16.50;;
40449;SDS011;41787;53.570;10.032;2022-12-07T00:33:40;24.25;;;13.57;;
40449;SDS011;41787;53.570;10.032;2022-12-07T00:36:07;22.52;;;13.23;;
40449;SDS011;41787;53.570;10.032;2022-12-07T00:38:34;25.13;;;16.05;;
40449;SDS011;41787;53.570;10.032;2022-12-07T00:41:01;28.88;;;15.45;;
40449;SDS011;41787;53.570;10.032;2022-12-07T00:43:27;25.17;;;14.95;;
40449;SDS011;41787;53.570;10.032;2022-12-07T00:45:53;25.65;;;16.15;;
40449;SDS011;41787;53.570;10.032;2022-12-07T00:48:19;23.30;;;14.50;;
40449;SDS011;41787;53.570;10.032;2022-12-07T00:50:45;27.00;;;15.65;;
40449;SDS011;41787;53.570;10.032;2022-12-07T00:53:11;27.35;;;14.82;;
40449;SDS011;41787;53.570;10.032;2022-12-07T00:55:37;21.65;;;13.77;;
40449;SDS011;41787;53.570;10.032;2022-12-07T00:58:03;24.60;;;14.32;;
40449;SDS011;41787;53.570;10.032;2022-12-07T01:00:29;25.38;;;14.70;;
40449;SDS011;41787;53.570;10.032;2022-12-07T01:02:56;25.05;;;14.20;;
40449;SDS011;41787;53.570;10.032;2022-12-07T01:05:21;23.80;;;14.20;;
40449;SDS011;41787;53.570;10.032;2022-12-07T01:07:47;19.27;;;11.98;;
40449;SDS011;41787;53.570;10.032;2022-12-07T01:10:14;22.38;;;12.65;;
40449;SDS011;41787;53.570;10.032;2022-12-07T01:12:40;19.67;;;12.75;;
40449;SDS011;41787;53.570;10.032;2022-12-07T01:15:06;19.88;;;12.63;;
40449;SDS011;41787;53.570;10.032;2022-12-07T01:17:32;23.63;;;12.63;;
40449;SDS011;41787;53.570;10.032;2022-12-07T01:19:58;18.15;;;12.40;;
40449;SDS011;41787;53.570;10.032;2022-12-07T01:22:24;20.17;;;11.40;;
40449;SDS011;41787;53.570;10.032;2022-12-07T01:24:50;19.65;;;11.82;;
40449;SDS011;41787;53.570;10.032;2022-12-07T01:27:16;18.52;;;10.73;;
40449;SDS011;41787;53.570;10.032;2022-12-07T01:29:42;16.08;;;11.35;;
40449;SDS011;41787;53.570;10.032;2022-12-07T01:32:08;19.67;;;10.40;;
40449;SDS011;41787;53.570;10.032;2022-12-07T01:34:34;18.35;;;12.15;;
40449;SDS011;41787;53.570;10.032;2022-12-07T01:37:00;21.15;;;11.85;;
40449;SDS011;41787;53.570;10.032;2022-12-07T01:39:26;25.27;;;12.45;;
40449;SDS011;41787;53.570;10.032;2022-12-07T01:41:52;20.35;;;10.98;;
40449;SDS011;41787;53.570;10.032;2022-12-07T01:46:45;20.50;;;12.00;;
40449;SDS011;41787;53.570;10.032;2022-12-07T01:49:16;23.13;;;14.18;;
40449;SDS011;41787;53.570;10.032;2022-12-07T01:51:42;19.77;;;12.68;;
40449;SDS011;41787;53.570;10.032;2022-12-07T01:54:09;20.10;;;11.13;;
40449;SDS011;41787;53.570;10.032;2022-12-07T01:56:37;23.05;;;13.68;;
40449;SDS011;41787;53.570;10.032;2022-12-07T01:59:04;24.45;;;12.80;;
40449;SDS011;41787;53.570;10.032;2022-12-07T02:01:30;21.85;;;12.93;;
40449;SDS011;41787;53.570;10.032;2022-12-07T02:03:56;28.20;;;13.52;;
40449;SDS011;41787;53.570;10.032;2022-12-07T02:06:23;26.95;;;12.70;;
40449;SDS011;41787;53.570;10.032;2022-12-07T02:08:50;24.98;;;11.90;;
40449;SDS011;41787;53.570;10.032;2022-12-07T02:11:16;23.38;;;13.77;;
40449;SDS011;41787;53.570;10.032;2022-12-07T02:13:42;23.95;;;11.55;;
40449;SDS011;41787;53.570;10.032;2022-12-07T02:21:41;18.70;;;9.75;;
40449;SDS011;41787;53.570;10.032;2022-12-07T02:24:14;14.95;;;9.25;;
40449;SDS011;41787;53.570;10.032;2022-12-07T02:29:27;16.85;;;8.82;;
40449;SDS011;41787;53.570;10.032;2022-12-07T02:32:13;20.10;;;9.48;;
40449;SDS011;41787;53.570;10.032;2022-12-07T02:34:47;17.75;;;7.65;;
40449;SDS011;41787;53.570;10.032;2022-12-07T02:40:07;14.68;;;7.50;;
40449;SDS011;41787;53.570;10.032;2022-12-07T02:42:35;14.73;;;7.70;;
40449;SDS011;41787;53.570;10.032;2022-12-07T02:45:03;12.60;;;7.20;;
40449;SDS011;41787;53.570;10.032;2022-12-07T02:47:29;14.45;;;7.00;;
40449;SDS011;41787;53.570;10.032;2022-12-07T02:49:57;17.10;;;6.07;;
40449;SDS011;41787;53.570;10.032;2022-12-07T02:52:23;10.50;;;5.55;;
40449;SDS011;41787;53.570;10.032;2022-12-07T02:54:49;16.63;;;5.20;;
40449;SDS011;41787;53.570;10.032;2022-12-07T02:57:20;16.50;;;5.75;;
40449;SDS011;41787;53.570;10.032;2022-12-07T03:10:15;9.23;;;4.22;;
40449;SDS011;41787;53.570;10.032;2022-12-07T03:15:12;8.52;;;3.70;;
40449;SDS011;41787;53.570;10.032;2022-12-07T03:17:40;11.73;;;3.22;;
40449;SDS011;41787;53.570;10.032;2022-12-07T03:20:10;5.45;;;3.17;;
40449;SDS011;41787;53.570;10.032;2022-12-07T03:22:37;6.68;;;3.05;;
40449;SDS011;41787;53.570;10.032;2022-12-07T03:25:04;6.60;;;3.15;;
40449;SDS011;41787;53.570;10.032;2022-12-07T03:30:02;8.10;;;3.50;;
40449;SDS011;41787;53.570;10.032;2022-12-07T03:35:05;4.80;;;2.50;;
40449;SDS011;41787;53.570;10.032;2022-12-07T03:37:34;6.97;;;2.92;;
40449;SDS011;41787;53.570;10.032;2022-12-07T03:40:13;7.20;;;3.05;;
40449;SDS011;41787;53.570;10.032;2022-12-07T03:42:40;2.60;;;1.13;;
40449;SDS011;41787;53.570;10.032;2022-12-07T03:45:07;5.25;;;2.00;;
40449;SDS011;41787;53.570;10.032;2022-12-07T03:47:34;5.43;;;1.90;;
40449;SDS011;41787;53.570;10.032;2022-12-07T03:52:45;2.55;;;1.60;;
40449;SDS011;41787;53.570;10.032;2022-12-07T03:57:45;4.13;;;1.80;;
40449;SDS011;41787;53.570;10.032;2022-12-07T04:00:12;2.40;;;1.17;;
40449;SDS011;41787;53.570;10.032;2022-12-07T04:02:38;9.07;;;1.65;;
40449;SDS011;41787;53.570;10.032;2022-12-07T04:05:04;4.88;;;1.60;;
40449;SDS011;41787;53.570;10.032;2022-12-07T04:07:30;5.05;;;1.83;;
40449;SDS011;41787;53.570;10.032;2022-12-07T04:09:56;6.35;;;1.88;;
40449;SDS011;41787;53.570;10.032;2022-12-07T04:12:22;4.55;;;1.80;;
40449;SDS011;41787;53.570;10.032;2022-12-07T04:14:49;4.35;;;1.85;;
40449;SDS011;41787;53.570;10.032;2022-12-07T04:17:15;4.40;;;1.63;;
40449;SDS011;41787;53.570;10.032;2022-12-07T04:19:41;7.45;;;2.10;;
40449;SDS011;41787;53.570;10.032;2022-12-07T04:22:07;3.47;;;1.65;;
40449;SDS011;41787;53.570;10.032;2022-12-07T04:24:33;5.53;;;1.80;;
40449;SDS011;41787;53.570;10.032;2022-12-07T04:26:59;4.20;;;2.10;;
40449;SDS011;41787;53.570;10.032;2022-12-07T04:29:25;6.05;;;2.08;;
40449;SDS011;41787;53.570;10.032;2022-12-07T04:31:51;6.68;;;2.50;;
40449;SDS011;41787;53.570;10.032;2022-12-07T04:34:17;7.07;;;2.00;;
40449;SDS011;41787;53.570;10.032;2022-12-07T04:36:43;8.43;;;2.85;;
40449;SDS011;41787;53.570;10.032;2022-12-07T04:39:20;5.47;;;2.33;;
40449;SDS011;41787;53.570;10.032;2022-12-07T04:41:46;5.20;;;2.25;;
40449;SDS011;41787;53.570;10.032;2022-12-07T04:44:12;6.82;;;2.30;;
40449;SDS011;41787;53.570;10.032;2022-12-07T04:46:39;6.88;;;2.42;;
40449;SDS011;41787;53.570;10.032;2022-12-07T04:49:05;3.90;;;2.10;;
40449;SDS011;41787;53.570;10.032;2022-12-07T04:51:31;6.30;;;2.38;;
40449;SDS011;41787;53.570;10.032;2022-12-07T04:53:57;12.98;;;2.72;;
40449;SDS011;41787;53.570;10.032;2022-12-07T04:56:23;7.35;;;2.63;;
40449;SDS011;41787;53.570;10.032;2022-12-07T04:58:50;6.70;;;3.03;;
40449;SDS011;41787;53.570;10.032;2022-12-07T05:01:17;5.03;;;2.65;;
40449;SDS011;41787;53.570;10.032;2022-12-07T05:03:43;5.68;;;2.92;;
40449;SDS011;41787;53.570;10.032;2022-12-07T05:06:09;3.75;;;2.40;;
40449;SDS011;41787;53.570;10.032;2022-12-07T05:08:35;6.80;;;2.55;;
40449;SDS011;41787;53.570;10.032;2022-12-07T05:11:02;6.97;;;2.92;;
40449;SDS011;41787;53.570;10.032;2022-12-07T05:13:28;11.13;;;4.45;;
40449;SDS011;41787;53.570;10.032;2022-12-07T05:15:54;6.82;;;3.00;;
40449;SDS011;41787;53.570;10.032;2022-12-07T05:18:20;4.22;;;2.83;;
40449;SDS011;41787;53.570;10.032;2022-12-07T05:20:46;4.53;;;2.60;;
40449;SDS011;41787;53.570;10.032;2022-12-07T05:23:12;6.05;;;2.95;;
40449;SDS011;41787;53.570;10.032;2022-12-07T05:25:38;6.97;;;3.10;;
40449;SDS011;41787;53.570;10.032;2022-12-07T05:28:04;4.50;;;3.42;;
40449;SDS011;41787;53.570;10.032;2022-12-07T05:30:30;6.05;;;3.05;;
40449;SDS011;41787;53.570;10.032;2022-12-07T05:32:56;11.48;;;3.45;;
40449;SDS011;41787;53.570;10.032;2022-12-07T05:35:22;7.55;;;3.22;;
40449;SDS011;41787;53.570;10.032;2022-12-07T05:37:48;9.95;;;3.40;;
40449;SDS011;41787;53.570;10.032;2022-12-07T05:40:14;7.80;;;4.05;;
40449;SDS011;41787;53.570;10.032;2022-12-07T05:42:41;8.23;;;3.47;;
40449;SDS011;41787;53.570;10.032;2022-12-07T05:45:08;8.80;;;3.22;;
40449;SDS011;41787;53.570;10.032;2022-12-07T05:47:34;7.57;;;3.85;;
40449;SDS011;41787;53.570;10.032;2022-12-07T05:50:00;6.38;;;3.38;;
40449;SDS011;41787;53.570;10.032;2022-12-07T05:52:26;8.40;;;3.53;;
40449;SDS011;41787;53.570;10.032;2022-12-07T05:54:52;8.50;;;3.45;;
40449;SDS011;41787;53.570;10.032;2022-12-07T05:57:18;6.25;;;3.33;;
40449;SDS011;41787;53.570;10.032;2022-12-07T05:59:44;6.72;;;3.42;;
40449;SDS011;41787;53.570;10.032;2022-12-07T06:02:11;5.50;;;3.13;;
40449;SDS011;41787;53.570;10.032;2022-12-07T06:04:38;8.68;;;3.20;;
40449;SDS011;41787;53.570;10.032;2022-12-07T06:07:05;5.65;;;4.07;;
40449;SDS011;41787;53.570;10.032;2022-12-07T06:09:31;10.40;;;3.10;;
40449;SDS011;41787;53.570;10.032;2022-12-07T06:11:57;7.95;;;3.33;;
40449;SDS011;41787;53.570;10.032;2022-12-07T06:14:42;8.05;;;2.78;;
40449;SDS011;41787;53.570;10.032;2022-12-07T06:17:09;6.53;;;3.10;;
40449;SDS011;41787;53.570;10.032;2022-12-07T06:19:35;8.50;;;3.08;;
40449;SDS011;41787;53.570;10.032;2022-12-07T06:22:01;6.75;;;2.97;;
40449;SDS011;41787;53.570;10.032;2022-12-07T06:24:27;8.38;;;3.35;;
40449;SDS011;41787;53.570;10.032;2022-12-07T06:26:53;8.18;;;3.47;;
40449;SDS011;41787;53.570;10.032;2022-12-07T06:29:19;6.45;;;2.97;;
40449;SDS011;41787;53.570;10.032;2022-12-07T06:31:46;8.05;;;3.47;;
40449;SDS011;41787;53.570;10.032;2022-12-07T06:34:14;9.10;;;3.70;;
40449;SDS011;41787;53.570;10.032;2022-12-07T06:36:40;4.50;;;3.13;;
40449;SDS011;41787;53.570;10.032;2022-12-07T06:39:06;7.28;;;3.15;;
40449;SDS011;41787;53.570;10.032;2022-12-07T06:41:34;4.13;;;2.92;;
40449;SDS011;41787;53.570;10.032;2022-12-07T06:44:00;7.03;;;2.83;;
40449;SDS011;41787;53.570;10.032;2022-12-07T06:46:25;8.00;;;2.55;;
40449;SDS011;41787;53.570;10.032;2022-12-07T06:48:51;6.38;;;2.90;;
40449;SDS011;41787;53.570;10.032;2022-12-07T06:51:17;4.45;;;3.00;;
40449;SDS011;41787;53.570;10.032;2022-12-07T06:53:43;11.23;;;3.15;;
40449;SDS011;41787;53.570;10.032;2022-12-07T06:56:09;3.97;;;2.20;;
40449;SDS011;41787;53.570;10.032;2022-12-07T06:58:35;6.13;;;2.15;;
40449;SDS011;41787;53.570;10.032;2022-12-07T07:01:02;5.05;;;1.92;;
40449;SDS011;41787;53.570;10.032;2022-12-07T07:03:28;10.70;;;2.60;;
40449;SDS011;41787;53.570;10.032;2022-12-07T07:05:54;4.85;;;2.10;;
40449;SDS011;41787;53.570;10.032;2022-12-07T07:08:20;6.72;;;2.08;;
40449;SDS011;41787;53.570;10.032;2022-12-07T07:10:46;6.70;;;1.83;;
40449;SDS011;41787;53.570;10.032;2022-12-07T07:13:12;7.03;;;2.20;;
40449;SDS011;41787;53.570;10.032;2022-12-07T07:15:38;4.72;;;1.90;;
40449;SDS011;41787;53.570;10.032;2022-12-07T07:18:04;4.32;;;2.83;;
40449;SDS011;41787;53.570;10.032;2022-12-07T07:20:30;10.73;;;1.80;;
40449;SDS011;41787;53.570;10.032;2022-12-07T07:22:56;5.72;;;2.00;;
40449;SDS011;41787;53.570;10.032;2022-12-07T07:25:22;5.53;;;2.20;;
40449;SDS011;41787;53.570;10.032;2022-12-07T07:27:48;7.65;;;2.47;;
40449;SDS011;41787;53.570;10.032;2022-12-07T07:30:14;5.28;;;2.28;;
40449;SDS011;41787;53.570;10.032;2022-12-07T07:32:40;5.18;;;1.85;;
40449;SDS011;41787;53.570;10.032;2022-12-07T07:35:06;7.65;;;2.20;;
40449;SDS011;41787;53.570;10.032;2022-12-07T07:37:32;10.95;;;2.53;;
40449;SDS011;41787;53.570;10.032;2022-12-07T07:39:57;5.57;;;2.00;;
40449;SDS011;41787;53.570;10.032;2022-12-07T07:42:23;6.82;;;2.10;;
40449;SDS011;41787;53.570;10.032;2022-12-07T07:44:49;8.13;;;2.22;;
40449;SDS011;41787;53.570;10.032;2022-12-07T07:47:15;4.97;;;1.63;;
40449;SDS011;41787;53.570;10.032;2022-12-07T07:49:41;7.22;;;1.63;;
40449;SDS011;41787;53.570;10.032;2022-12-07T07:52:07;5.63;;;1.90;;
40449;SDS011;41787;53.570;10.032;2022-12-07T07:54:33;6.82;;;1.80;;
40449;SDS011;41787;53.570;10.032;2022-12-07T07:56:59;5.10;;;1.45;;
40449;SDS011;41787;53.570;10.032;2022-12-07T07:59:25;4.72;;;1.90;;
40449;SDS011;41787;53.570;10.032;2022-12-07T08:01:51;4.20;;;1.60;;
40449;SDS011;41787;53.570;10.032;2022-12-07T08:04:17;4.30;;;1.80;;
40449;SDS011;41787;53.570;10.032;2022-12-07T08:06:43;9.20;;;1.85;;
40449;SDS011;41787;53.570;10.032;2022-12-07T08:09:09;3.25;;;1.67;;
40449;SDS011;41787;53.570;10.032;2022-12-07T08:11:35;9.00;;;2.10;;
40449;SDS011;41787;53.570;10.032;2022-12-07T08:14:02;6.80;;;2.15;;
40449;SDS011;41787;53.570;10.032;2022-12-07T08:16:28;6.30;;;1.67;;
40449;SDS011;41787;53.570;10.032;2022-12-07T08:18:54;6.90;;;1.95;;
40449;SDS011;41787;53.570;10.032;2022-12-07T08:21:20;7.43;;;1.80;;
40449;SDS011;41787;53.570;10.032;2022-12-07T08:23:46;9.40;;;2.47;;
40449;SDS011;41787;53.570;10.032;2022-12-07T08:26:13;6.13;;;1.63;;
40449;SDS011;41787;53.570;10.032;2022-12-07T08:28:40;6.57;;;1.83;;
40449;SDS011;41787;53.570;10.032;2022-12-07T08:31:07;9.48;;;3.20;;
40449;SDS011;41787;53.570;10.032;2022-12-07T08:33:33;11.52;;;1.95;;
40449;SDS011;41787;53.570;10.032;2022-12-07T08:36:03;4.40;;;1.70;;
40449;SDS011;41787;53.570;10.032;2022-12-07T08:38:30;6.53;;;1.50;;
40449;SDS011;41787;53.570;10.032;2022-12-07T08:40:56;9.55;;;1.55;;
40449;SDS011;41787;53.570;10.032;2022-12-07T08:43:23;8.63;;;2.08;;
40449;SDS011;41787;53.570;10.032;2022-12-07T08:45:50;6.65;;;2.03;;
40449;SDS011;41787;53.570;10.032;2022-12-07T08:48:19;11.98;;;3.20;;
40449;SDS011;41787;53.570;10.032;2022-12-07T08:50:49;14.77;;;2.92;;
40449;SDS011;41787;53.570;10.032;2022-12-07T08:53:15;11.05;;;3.00;;
40449;SDS011;41787;53.570;10.032;2022-12-07T08:55:41;3.50;;;1.30;;
40449;SDS011;41787;53.570;10.032;2022-12-07T08:58:07;9.52;;;1.45;;
40449;SDS011;41787;53.570;10.032;2022-12-07T09:00:33;7.38;;;1.80;;
40449;SDS011;41787;53.570;10.032;2022-12-07T09:02:59;10.95;;;1.52;;
40449;SDS011;41787;53.570;10.032;2022-12-07T09:05:25;8.07;;;1.88;;
40449;SDS011;41787;53.570;10.032;2022-12-07T09:07:51;8.60;;;1.58;;
40449;SDS011;41787;53.570;10.032;2022-12-07T09:10:20;6.20;;;1.45;;
40449;SDS011;41787;53.570;10.032;2022-12-07T09:12:46;4.35;;;1.50;;
40449;SDS011;41787;53.570;10.032;2022-12-07T09:15:12;6.93;;;1.20;;
40449;SDS011;41787;53.570;10.032;2022-12-07T09:17:38;9.50;;;1.38;;
40449;SDS011;41787;53.570;10.032;2022-12-07T09:20:04;9.85;;;1.77;;
40449;SDS011;41787;53.570;10.032;2022-12-07T09:22:31;5.63;;;2.00;;
40449;SDS011;41787;53.570;10.032;2022-12-07T09:24:57;9.80;;;1.67;;
40449;SDS011;41787;53.570;10.032;2022-12-07T09:27:23;7.95;;;1.35;;
40449;SDS011;41787;53.570;10.032;2022-12-07T09:29:49;10.13;;;2.22;;
40449;SDS011;41787;53.570;10.032;2022-12-07T09:32:15;4.45;;;1.50;;
40449;SDS011;41787;53.570;10.032;2022-12-07T09:34:41;3.83;;;1.70;;
40449;SDS011;41787;53.570;10.032;2022-12-07T09:37:07;6.75;;;1.50;;
40449;SDS011;41787;53.570;10.032;2022-12-07T09:39:33;5.25;;;1.70;;
40449;SDS011;41787;53.570;10.032;2022-12-07T09:41:59;6.40;;;1.52;;
40449;SDS011;41787;53.570;10.032;2022-12-07T09:44:28;4.73;;;1.57;;
40449;SDS011;41787;53.570;10.032;2022-12-07T09:46:54;7.32;;;1.70;;
40449;SDS011;41787;53.570;10.032;2022-12-07T09:49:21;5.35;;;1.25;;
40449;SDS011;41787;53.570;10.032;2022-12-07T09:51:55;5.53;;;1.25;;
40449;SDS011;41787;53.570;10.032;2022-12-07T09:54:24;6.35;;;1.48;;
40449;SDS011;41787;53.570;10.032;2022-12-07T09:56:50;6.72;;;1.65;;
40449;SDS011;41787;53.570;10.032;2022-12-07T09:59:17;4.00;;;2.05;;
40449;SDS011;41787;53.570;10.032;2022-12-07T10:01:43;11.68;;;2.42;;
40449;SDS011;41787;53.570;10.032;2022-12-07T10:04:22;8.10;;;1.58;;
40449;SDS011;41787;53.570;10.032;2022-12-07T10:06:49;6.45;;;1.33;;
40449;SDS011;41787;53.570;10.032;2022-12-07T10:09:19;6.03;;;1.70;;
40449;SDS011;41787;53.570;10.032;2022-12-07T10:12:05;8.38;;;1.88;;
40449;SDS011;41787;53.570;10.032;2022-12-07T10:14:35;9.55;;;2.70;;
40449;SDS011;41787;53.570;10.032;2022-12-07T10:17:01;7.75;;;2.53;;
40449;SDS011;41787;53.570;10.032;2022-12-07T10:19:29;6.75;;;1.95;;
40449;SDS011;41787;53.570;10.032;2022-12-07T10:22:06;6.13;;;1.52;;
40449;SDS011;41787;53.570;10.032;2022-12-07T10:24:34;11.82;;;1.60;;
40449;SDS011;41787;53.570;10.032;2022-12-07T10:27:02;4.85;;;1.23;;
40449;SDS011;41787;53.570;10.032;2022-12-07T10:29:34;3.72;;;1.02;;
40449;SDS011;41787;53.570;10.032;2022-12-07T10:32:06;11.38;;;1.48;;
40449;SDS011;41787;53.570;10.032;2022-12-07T10:34:33;8.10;;;1.33;;
40449;SDS011;41787;53.570;10.032;2022-12-07T10:39:51;6.80;;;1.58;;
40449;SDS011;41787;53.570;10.032;2022-12-07T10:42:28;6.75;;;1.42;;
40449;SDS011;41787;53.570;10.032;2022-12-07T10:45:13;6.90;;;1.30;;
40449;SDS011;41787;53.570;10.032;2022-12-07T10:55:53;10.88;;;2.63;;
40449;SDS011;41787;53.570;10.032;2022-12-07T10:58:26;4.82;;;1.20;;
40449;SDS011;41787;53.570;10.032;2022-12-07T11:03:44;8.18;;;1.42;;
40449;SDS011;41787;53.570;10.032;2022-12-07T11:06:17;6.50;;;2.15;;
40449;SDS011;41787;53.570;10.032;2022-12-07T11:11:19;4.13;;;1.00;;
40449;SDS011;41787;53.570;10.032;2022-12-07T11:21:44;7.40;;;1.48;;
40449;SDS011;41787;53.570;10.032;2022-12-07T11:26:50;4.78;;;1.50;;
40449;SDS011;41787;53.570;10.032;2022-12-07T11:35:10;6.93;;;1.52;;
40449;SDS011;41787;53.570;10.032;2022-12-07T11:37:37;13.05;;;1.40;;
40449;SDS011;41787;53.570;10.032;2022-12-07T11:42:42;5.32;;;1.08;;
40449;SDS011;41787;53.570;10.032;2022-12-07T11:45:15;8.70;;;1.30;;
40449;SDS011;41787;53.570;10.032;2022-12-07T11:57:45;5.10;;;1.02;;
40449;SDS011;41787;53.570;10.032;2022-12-07T12:00:15;6.40;;;1.27;;
40449;SDS011;41787;53.570;10.032;2022-12-07T12:05:24;7.20;;;1.13;;
40449;SDS011;41787;53.570;10.032;2022-12-07T12:07:52;6.78;;;1.30;;
40449;SDS011;41787;53.570;10.032;2022-12-07T12:10:24;14.65;;;2.05;;
40449;SDS011;41787;53.570;10.032;2022-12-07T12:15:38;8.95;;;1.67;;
40449;SDS011;41787;53.570;10.032;2022-12-07T12:18:14;8.73;;;1.90;;
40449;SDS011;41787;53.570;10.032;2022-12-07T12:20:46;9.20;;;1.58;;
40449;SDS011;41787;53.570;10.032;2022-12-07T12:23:17;5.13;;;1.02;;
40449;SDS011;41787;53.570;10.032;2022-12-07T12:25:48;6.03;;;1.10;;
40449;SDS011;41787;53.570;10.032;2022-12-07T12:28:29;7.45;;;1.27;;
40449;SDS011;41787;53.570;10.032;2022-12-07T12:31:07;8.23;;;1.20;;
40449;SDS011;41787;53.570;10.032;2022-12-07T12:33:35;9.52;;;1.35;;
40449;SDS011;41787;53.570;10.032;2022-12-07T12:43:59;13.18;;;1.67;;
40449;SDS011;41787;53.570;10.032;2022-12-07T12:48:55;6.23;;;1.50;;
40449;SDS011;41787;53.570;10.032;2022-12-07T12:51:38;9.40;;;1.60;;
40449;SDS011;41787;53.570;10.032;2022-12-07T12:54:05;4.35;;;1.58;;
40449;SDS011;41787;53.570;10.032;2022-12-07T13:01:50;9.38;;;1.67;;
40449;SDS011;41787;53.570;10.032;2022-12-07T13:04:18;10.68;;;1.38;;
40449;SDS011;41787;53.570;10.032;2022-12-07T13:06:47;5.28;;;1.20;;
40449;SDS011;41787;53.570;10.032;2022-12-07T13:09:26;5.05;;;0.70;;
40449;SDS011;41787;53.570;10.032;2022-12-07T13:11:58;8.20;;;0.93;;
40449;SDS011;41787;53.570;10.032;2022-12-07T13:17:12;6.35;;;1.13;;
40449;SDS011;41787;53.570;10.032;2022-12-07T13:24:56;6.80;;;1.13;;
40449;SDS011;41787;53.570;10.032;2022-12-07T13:27:23;8.50;;;1.25;;
40449;SDS011;41787;53.570;10.032;2022-12-07T13:29:50;5.47;;;1.17;;
40449;SDS011;41787;53.570;10.032;2022-12-07T13:32:49;7.65;;;1.58;;
40449;SDS011;41787;53.570;10.032;2022-12-07T13:35:27;9.63;;;1.38;;
40449;SDS011;41787;53.570;10.032;2022-12-07T13:37:53;10.25;;;1.60;;
40449;SDS011;41787;53.570;10.032;2022-12-07T13:40:20;7.43;;;1.33;;
40449;SDS011;41787;53.570;10.032;2022-12-07T13:42:46;4.00;;;0.82;;
40449;SDS011;41787;53.570;10.032;2022-12-07T13:45:23;7.03;;;1.33;;
40449;SDS011;41787;53.570;10.032;2022-12-07T13:48:08;3.45;;;0.80;;
40449;SDS011;41787;53.570;10.032;2022-12-07T13:50:37;9.57;;;0.98;;
40449;SDS011;41787;53.570;10.032;2022-12-07T13:53:07;9.38;;;1.35;;
40449;SDS011;41787;53.570;10.032;2022-12-07T13:55:37;7.90;;;1.35;;
40449;SDS011;41787;53.570;10.032;2022-12-07T13:58:09;3.10;;;1.20;;
40449;SDS011;41787;53.570;10.032;2022-12-07T14:00:35;5.63;;;0.57;;
40449;SDS011;41787;53.570;10.032;2022-12-07T14:03:20;2.25;;;0.85;;
40449;SDS011;41787;53.570;10.032;2022-12-07T14:06:03;5.95;;;0.77;;
40449;SDS011;41787;53.570;10.032;2022-12-07T14:08:29;6.75;;;1.27;;
40449;SDS011;41787;53.570;10.032;2022-12-07T14:10:55;3.75;;;0.75;;
40449;SDS011;41787;53.570;10.032;2022-12-07T14:18:56;6.30;;;0.82;;
40449;SDS011;41787;53.570;10.032;2022-12-07T14:21:27;5.88;;;0.75;;
40449;SDS011;41787;53.570;10.032;2022-12-07T14:26:49;8.27;;;1.23;;
40449;SDS011;41787;53.570;10.032;2022-12-07T14:29:22;6.72;;;1.13;;
40449;SDS011;41787;53.570;10.032;2022-12-07T14:31:54;1.85;;;0.90;;
40449;SDS011;41787;53.570;10.032;2022-12-07T14:34:20;2.65;;;1.20;;
40449;SDS011;41787;53.570;10.032;2022-12-07T14:36:46;3.45;;;0.90;;
40449;SDS011;41787;53.570;10.032;2022-12-07T14:39:12;9.68;;;1.13;;
40449;SDS011;41787;53.570;10.032;2022-12-07T14:41:38;7.20;;;1.15;;
40449;SDS011;41787;53.570;10.032;2022-12-07T14:44:20;6.03;;;1.38;;
40449;SDS011;41787;53.570;10.032;2022-12-07T14:49:12;6.43;;;0.80;;
40449;SDS011;41787;53.570;10.032;2022-12-07T14:51:39;9.02;;;1.27;;
40449;SDS011;41787;53.570;10.032;2022-12-07T14:54:05;2.25;;;0.65;;
40449;SDS011;41787;53.570;10.032;2022-12-07T14:56:32;4.35;;;0.93;;
40449;SDS011;41787;53.570;10.032;2022-12-07T14:58:58;3.47;;;1.20;;
40449;SDS011;41787;53.570;10.032;2022-12-07T15:01:24;7.53;;;1.25;;
40449;SDS011;41787;53.570;10.032;2022-12-07T15:03:50;6.35;;;1.00;;
40449;SDS011;41787;53.570;10.032;2022-12-07T15:06:16;5.10;;;1.00;;
40449;SDS011;41787;53.570;10.032;2022-12-07T15:08:44;4.65;;;1.15;;
40449;SDS011;41787;53.570;10.032;2022-12-07T15:11:11;5.32;;;0.90;;
40449;SDS011;41787;53.570;10.032;2022-12-07T15:13:37;4.88;;;0.95;;
40449;SDS011;41787;53.570;10.032;2022-12-07T15:16:22;6.20;;;0.88;;
40449;SDS011;41787;53.570;10.032;2022-12-07T15:18:48;2.05;;;0.95;;
40449;SDS011;41787;53.570;10.032;2022-12-07T15:21:14;3.10;;;0.70;;
40449;SDS011;41787;53.570;10.032;2022-12-07T15:23:41;6.20;;;1.25;;
40449;SDS011;41787;53.570;10.032;2022-12-07T15:26:07;4.13;;;1.60;;
40449;SDS011;41787;53.570;10.032;2022-12-07T15:28:33;7.28;;;1.40;;
40449;SDS011;41787;53.570;10.032;2022-12-07T15:30:59;3.10;;;1.10;;
40449;SDS011;41787;53.570;10.032;2022-12-07T15:33:25;7.63;;;1.10;;
40449;SDS011;41787;53.570;10.032;2022-12-07T15:35:51;5.78;;;1.23;;
40449;SDS011;41787;53.570;10.032;2022-12-07T15:38:17;3.65;;;0.80;;
40449;SDS011;41787;53.570;10.032;2022-12-07T15:40:46;8.20;;;1.30;;
40449;SDS011;41787;53.570;10.032;2022-12-07T15:43:12;2.85;;;0.93;;
40449;SDS011;41787;53.570;10.032;2022-12-07T15:45:57;4.05;;;0.88;;
40449;SDS011;41787;53.570;10.032;2022-12-07T15:48:24;4.07;;;0.88;;
40449;SDS011;41787;53.570;10.032;2022-12-07T15:50:50;2.83;;;1.38;;
40449;SDS011;41787;53.570;10.032;2022-12-07T15:53:16;2.60;;;1.20;;
40449;SDS011;41787;53.570;10.032;2022-12-07T15:55:41;4.78;;;1.83;;
40449;SDS011;41787;53.570;10.032;2022-12-07T15:58:07;3.25;;;1.25;;
40449;SDS011;41787;53.570;10.032;2022-12-07T16:00:33;4.38;;;1.30;;
40449;SDS011;41787;53.570;10.032;2022-12-07T16:02:59;3.00;;;1.08;;
40449;SDS011;41787;53.570;10.032;2022-12-07T16:05:25;4.18;;;1.25;;
40449;SDS011;41787;53.570;10.032;2022-12-07T16:07:51;3.97;;;1.30;;
40449;SDS011;41787;53.570;10.032;2022-12-07T16:10:17;7.63;;;1.30;;
40449;SDS011;41787;53.570;10.032;2022-12-07T16:12:43;8.40;;;1.30;;
40449;SDS011;41787;53.570;10.032;2022-12-07T16:15:09;7.57;;;1.30;;
40449;SDS011;41787;53.570;10.032;2022-12-07T16:17:35;11.88;;;2.97;;
40449;SDS011;41787;53.570;10.032;2022-12-07T16:20:01;6.90;;;1.55;;
40449;SDS011;41787;53.570;10.032;2022-12-07T16:22:27;4.22;;;1.40;;
40449;SDS011;41787;53.570;10.032;2022-12-07T16:24:54;4.60;;;1.40;;
40449;SDS011;41787;53.570;10.032;2022-12-07T16:27:20;4.70;;;1.50;;
40449;SDS011;41787;53.570;10.032;2022-12-07T16:29:46;5.07;;;1.50;;
40449;SDS011;41787;53.570;10.032;2022-12-07T16:32:12;6.20;;;1.73;;
40449;SDS011;41787;53.570;10.032;2022-12-07T16:34:39;8.75;;;1.52;;